sensor_id;sensor_type;location;lat;lon;timestamp;P1;durP1;ratioP1;P2;durP2;ratioP2
65558;SDS011;52203;51.998;5.140;2024-03-22T00:00:31;6.00;;;3.30;;
65558;SDS011;52203;51.998;5.140;2024-03-22T00:02:56;5.00;;;3.10;;
65558;SDS011;52203;51.998;5.140;2024-03-22T00:05:21;6.95;;;3.58;;
65558;SDS011;52203;51.998;5.140;2024-03-22T00:07:47;7.20;;;3.60;;
65558;SDS011;52203;51.998;5.140;2024-03-22T00:10:13;6.68;;;3.28;;
65558;SDS011;52203;51.998;5.140;2024-03-22T00:12:39;6.00;;;3.67;;
65558;SDS011;52203;51.998;5.140;2024-03-22T00:15:05;6.22;;;3.58;;
65558;SDS011;52203;51.998;5.140;2024-03-22T00:17:31;4.53;;;3.25;;
65558;SDS011;52203;51.998;5.140;2024-03-22T00:19:56;5.00;;;3.35;;
65558;SDS011;52203;51.998;5.140;2024-03-22T00:22:22;5.28;;;3.35;;
65558;SDS011;52203;51.998;5.140;2024-03-22T00:24:47;4.53;;;3.28;;
65558;SDS011;52203;51.998;5.140;2024-03-22T00:27:13;5.07;;;3.13;;
65558;SDS011;52203;51.998;5.140;2024-03-22T00:29:38;5.28;;;3.50;;
65558;SDS011;52203;51.998;5.140;2024-03-22T00:32:04;5.28;;;3.28;;
65558;SDS011;52203;51.998;5.140;2024-03-22T00:34:32;4.35;;;3.05;;
65558;SDS011;52203;51.998;5.140;2024-03-22T00:36:57;5.07;;;2.88;;
65558;SDS011;52203;51.998;5.140;2024-03-22T00:39:23;5.82;;;3.25;;
65558;SDS011;52203;51.998;5.140;2024-03-22T00:41:48;4.93;;;3.17;;
65558;SDS011;52203;51.998;5.140;2024-03-22T00:44:14;5.10;;;3.10;;
65558;SDS011;52203;51.998;5.140;2024-03-22T00:46:39;4.80;;;3.40;;
65558;SDS011;52203;51.998;5.140;2024-03-22T00:49:05;6.07;;;3.28;;
65558;SDS011;52203;51.998;5.140;2024-03-22T00:51:30;4.78;;;3.45;;
65558;SDS011;52203;51.998;5.140;2024-03-22T00:53:58;5.55;;;3.40;;
65558;SDS011;52203;51.998;5.140;2024-03-22T00:56:24;4.60;;;3.05;;
65558;SDS011;52203;51.998;5.140;2024-03-22T00:58:49;4.63;;;2.90;;
65558;SDS011;52203;51.998;5.140;2024-03-22T01:01:15;5.88;;;3.20;;
65558;SDS011;52203;51.998;5.140;2024-03-22T01:03:40;4.90;;;3.00;;
65558;SDS011;52203;51.998;5.140;2024-03-22T01:06:05;6.35;;;3.38;;
65558;SDS011;52203;51.998;5.140;2024-03-22T01:08:32;5.50;;;3.28;;
65558;SDS011;52203;51.998;5.140;2024-03-22T01:10:57;5.10;;;3.50;;
65558;SDS011;52203;51.998;5.140;2024-03-22T01:13:23;4.80;;;3.20;;
65558;SDS011;52203;51.998;5.140;2024-03-22T01:15:53;5.25;;;3.30;;
65558;SDS011;52203;51.998;5.140;2024-03-22T01:18:18;4.43;;;3.13;;
65558;SDS011;52203;51.998;5.140;2024-03-22T01:20:44;4.68;;;3.03;;
65558;SDS011;52203;51.998;5.140;2024-03-22T01:23:09;5.63;;;3.55;;
65558;SDS011;52203;51.998;5.140;2024-03-22T01:25:35;4.78;;;3.30;;
65558;SDS011;52203;51.998;5.140;2024-03-22T01:28:00;5.85;;;3.20;;
65558;SDS011;52203;51.998;5.140;2024-03-22T01:30:26;5.30;;;3.53;;
65558;SDS011;52203;51.998;5.140;2024-03-22T01:32:55;4.30;;;2.90;;
65558;SDS011;52203;51.998;5.140;2024-03-22T01:35:20;5.15;;;3.60;;
65558;SDS011;52203;51.998;5.140;2024-03-22T01:37:46;5.40;;;2.70;;
65558;SDS011;52203;51.998;5.140;2024-03-22T01:40:12;4.07;;;2.72;;
65558;SDS011;52203;51.998;5.140;2024-03-22T01:42:38;5.30;;;3.22;;
65558;SDS011;52203;51.998;5.140;2024-03-22T01:45:04;4.97;;;2.88;;
65558;SDS011;52203;51.998;5.140;2024-03-22T01:47:30;5.43;;;3.28;;
65558;SDS011;52203;51.998;5.140;2024-03-22T01:49:56;4.55;;;2.90;;
65558;SDS011;52203;51.998;5.140;2024-03-22T01:52:22;6.28;;;3.58;;
65558;SDS011;52203;51.998;5.140;2024-03-22T01:54:49;5.25;;;3.22;;
65558;SDS011;52203;51.998;5.140;2024-03-22T01:57:15;4.13;;;2.95;;
65558;SDS011;52203;51.998;5.140;2024-03-22T01:59:41;4.65;;;3.25;;
65558;SDS011;52203;51.998;5.140;2024-03-22T02:02:07;4.93;;;2.85;;
65558;SDS011;52203;51.998;5.140;2024-03-22T02:04:32;5.88;;;3.25;;
65558;SDS011;52203;51.998;5.140;2024-03-22T02:06:58;5.15;;;3.20;;
65558;SDS011;52203;51.998;5.140;2024-03-22T02:09:23;5.55;;;3.17;;
65558;SDS011;52203;51.998;5.140;2024-03-22T02:11:50;5.72;;;3.40;;
65558;SDS011;52203;51.998;5.140;2024-03-22T02:14:16;5.70;;;2.85;;
65558;SDS011;52203;51.998;5.140;2024-03-22T02:16:41;4.30;;;2.75;;
65558;SDS011;52203;51.998;5.140;2024-03-22T02:19:07;4.65;;;2.97;;
65558;SDS011;52203;51.998;5.140;2024-03-22T02:21:33;5.53;;;3.08;;
65558;SDS011;52203;51.998;5.140;2024-03-22T02:23:59;6.45;;;3.15;;
65558;SDS011;52203;51.998;5.140;2024-03-22T02:26:25;5.25;;;3.13;;
65558;SDS011;52203;51.998;5.140;2024-03-22T02:28:55;4.85;;;3.00;;
65558;SDS011;52203;51.998;5.140;2024-03-22T02:31:21;4.63;;;2.97;;
65558;SDS011;52203;51.998;5.140;2024-03-22T02:33:46;5.22;;;3.00;;
65558;SDS011;52203;51.998;5.140;2024-03-22T02:36:12;5.65;;;3.40;;
65558;SDS011;52203;51.998;5.140;2024-03-22T02:38:37;4.97;;;3.10;;
65558;SDS011;52203;51.998;5.140;2024-03-22T02:41:03;4.93;;;3.08;;
65558;SDS011;52203;51.998;5.140;2024-03-22T02:43:28;5.57;;;3.10;;
65558;SDS011;52203;51.998;5.140;2024-03-22T02:45:56;4.65;;;2.85;;
65558;SDS011;52203;51.998;5.140;2024-03-22T02:48:22;4.95;;;3.28;;
65558;SDS011;52203;51.998;5.140;2024-03-22T02:50:47;6.80;;;3.30;;
65558;SDS011;52203;51.998;5.140;2024-03-22T02:53:13;4.72;;;3.30;;
65558;SDS011;52203;51.998;5.140;2024-03-22T02:55:39;4.88;;;2.97;;
65558;SDS011;52203;51.998;5.140;2024-03-22T02:58:05;5.60;;;3.22;;
65558;SDS011;52203;51.998;5.140;2024-03-22T03:00:31;5.60;;;3.15;;
65558;SDS011;52203;51.998;5.140;2024-03-22T03:03:00;4.50;;;2.92;;
65558;SDS011;52203;51.998;5.140;2024-03-22T03:05:26;4.32;;;2.63;;
65558;SDS011;52203;51.998;5.140;2024-03-22T03:07:51;5.80;;;3.10;;
65558;SDS011;52203;51.998;5.140;2024-03-22T03:10:17;4.13;;;3.00;;
65558;SDS011;52203;51.998;5.140;2024-03-22T03:12:42;4.13;;;2.83;;
65558;SDS011;52203;51.998;5.140;2024-03-22T03:15:08;5.50;;;3.00;;
65558;SDS011;52203;51.998;5.140;2024-03-22T03:17:33;4.53;;;2.78;;
65558;SDS011;52203;51.998;5.140;2024-03-22T03:19:59;5.35;;;3.30;;
65558;SDS011;52203;51.998;5.140;2024-03-22T03:22:24;5.72;;;3.00;;
65558;SDS011;52203;51.998;5.140;2024-03-22T03:24:50;5.60;;;3.15;;
65558;SDS011;52203;51.998;5.140;2024-03-22T03:27:15;5.93;;;3.28;;
65558;SDS011;52203;51.998;5.140;2024-03-22T03:29:41;4.93;;;3.05;;
65558;SDS011;52203;51.998;5.140;2024-03-22T03:32:06;5.07;;;3.33;;
65558;SDS011;52203;51.998;5.140;2024-03-22T03:34:32;5.10;;;3.35;;
65558;SDS011;52203;51.998;5.140;2024-03-22T03:36:57;4.50;;;3.08;;
65558;SDS011;52203;51.998;5.140;2024-03-22T03:39:25;5.10;;;2.72;;
65558;SDS011;52203;51.998;5.140;2024-03-22T03:41:51;5.05;;;3.45;;
65558;SDS011;52203;51.998;5.140;2024-03-22T03:44:16;5.35;;;2.97;;
65558;SDS011;52203;51.998;5.140;2024-03-22T03:46:42;6.18;;;3.28;;
65558;SDS011;52203;51.998;5.140;2024-03-22T03:49:09;5.85;;;3.28;;
65558;SDS011;52203;51.998;5.140;2024-03-22T03:51:35;5.30;;;3.22;;
65558;SDS011;52203;51.998;5.140;2024-03-22T03:54:01;4.72;;;3.28;;
65558;SDS011;52203;51.998;5.140;2024-03-22T03:56:26;4.70;;;3.17;;
65558;SDS011;52203;51.998;5.140;2024-03-22T03:58:52;4.63;;;3.00;;
65558;SDS011;52203;51.998;5.140;2024-03-22T04:01:18;4.78;;;3.42;;
65558;SDS011;52203;51.998;5.140;2024-03-22T04:03:44;4.88;;;3.05;;
65558;SDS011;52203;51.998;5.140;2024-03-22T04:06:09;5.38;;;3.17;;
65558;SDS011;52203;51.998;5.140;2024-03-22T04:08:35;6.05;;;3.50;;
65558;SDS011;52203;51.998;5.140;2024-03-22T04:11:00;5.55;;;3.58;;
65558;SDS011;52203;51.998;5.140;2024-03-22T04:13:26;6.15;;;3.35;;
65558;SDS011;52203;51.998;5.140;2024-03-22T04:15:52;4.65;;;3.30;;
65558;SDS011;52203;51.998;5.140;2024-03-22T04:18:18;5.50;;;3.33;;
65558;SDS011;52203;51.998;5.140;2024-03-22T04:20:56;5.05;;;3.33;;
65558;SDS011;52203;51.998;5.140;2024-03-22T04:23:24;7.55;;;3.78;;
65558;SDS011;52203;51.998;5.140;2024-03-22T04:25:53;5.85;;;3.40;;
65558;SDS011;52203;51.998;5.140;2024-03-22T04:28:26;5.53;;;3.38;;
65558;SDS011;52203;51.998;5.140;2024-03-22T04:33:25;5.57;;;3.10;;
65558;SDS011;52203;51.998;5.140;2024-03-22T04:35:51;6.10;;;3.47;;
65558;SDS011;52203;51.998;5.140;2024-03-22T04:38:17;5.68;;;3.67;;
65558;SDS011;52203;51.998;5.140;2024-03-22T04:40:43;5.35;;;3.50;;
65558;SDS011;52203;51.998;5.140;2024-03-22T04:43:08;5.13;;;3.60;;
65558;SDS011;52203;51.998;5.140;2024-03-22T04:45:34;5.28;;;3.40;;
65558;SDS011;52203;51.998;5.140;2024-03-22T04:48:01;4.38;;;3.25;;
65558;SDS011;52203;51.998;5.140;2024-03-22T04:50:27;6.40;;;3.53;;
65558;SDS011;52203;51.998;5.140;2024-03-22T04:52:53;5.88;;;3.95;;
65558;SDS011;52203;51.998;5.140;2024-03-22T04:55:21;6.45;;;3.90;;
65558;SDS011;52203;51.998;5.140;2024-03-22T04:57:46;5.45;;;3.67;;
65558;SDS011;52203;51.998;5.140;2024-03-22T05:00:12;6.05;;;3.50;;
65558;SDS011;52203;51.998;5.140;2024-03-22T05:02:38;6.05;;;3.72;;
65558;SDS011;52203;51.998;5.140;2024-03-22T05:05:06;4.45;;;3.28;;
65558;SDS011;52203;51.998;5.140;2024-03-22T05:07:33;5.78;;;3.83;;
65558;SDS011;52203;51.998;5.140;2024-03-22T05:09:58;5.55;;;3.55;;
65558;SDS011;52203;51.998;5.140;2024-03-22T05:12:24;5.38;;;3.67;;
65558;SDS011;52203;51.998;5.140;2024-03-22T05:14:49;5.07;;;3.38;;
65558;SDS011;52203;51.998;5.140;2024-03-22T05:17:15;5.47;;;3.60;;
65558;SDS011;52203;51.998;5.140;2024-03-22T05:19:40;7.97;;;4.00;;
65558;SDS011;52203;51.998;5.140;2024-03-22T05:22:06;5.97;;;4.00;;
65558;SDS011;52203;51.998;5.140;2024-03-22T05:24:31;5.88;;;3.60;;
65558;SDS011;52203;51.998;5.140;2024-03-22T05:26:57;5.63;;;4.13;;
65558;SDS011;52203;51.998;5.140;2024-03-22T05:29:24;5.68;;;3.90;;
65558;SDS011;52203;51.998;5.140;2024-03-22T05:31:50;5.57;;;3.72;;
65558;SDS011;52203;51.998;5.140;2024-03-22T05:34:17;6.07;;;3.50;;
65558;SDS011;52203;51.998;5.140;2024-03-22T05:36:43;5.20;;;3.47;;
65558;SDS011;52203;51.998;5.140;2024-03-22T05:39:08;5.28;;;3.72;;
65558;SDS011;52203;51.998;5.140;2024-03-22T05:41:35;4.85;;;3.80;;
65558;SDS011;52203;51.998;5.140;2024-03-22T05:44:01;7.03;;;3.92;;
65558;SDS011;52203;51.998;5.140;2024-03-22T05:46:28;5.03;;;3.35;;
65558;SDS011;52203;51.998;5.140;2024-03-22T05:48:57;5.57;;;3.63;;
65558;SDS011;52203;51.998;5.140;2024-03-22T05:51:23;5.63;;;3.97;;
65558;SDS011;52203;51.998;5.140;2024-03-22T05:53:52;6.22;;;3.90;;
65558;SDS011;52203;51.998;5.140;2024-03-22T05:56:18;5.10;;;3.28;;
65558;SDS011;52203;51.998;5.140;2024-03-22T05:58:43;5.25;;;3.60;;
65558;SDS011;52203;51.998;5.140;2024-03-22T06:01:09;5.45;;;3.58;;
65558;SDS011;52203;51.998;5.140;2024-03-22T06:03:34;5.32;;;3.53;;
65558;SDS011;52203;51.998;5.140;2024-03-22T06:06:00;6.20;;;3.88;;
65558;SDS011;52203;51.998;5.140;2024-03-22T06:08:26;5.95;;;3.65;;
65558;SDS011;52203;51.998;5.140;2024-03-22T06:10:54;5.47;;;3.72;;
65558;SDS011;52203;51.998;5.140;2024-03-22T06:13:23;5.50;;;3.42;;
65558;SDS011;52203;51.998;5.140;2024-03-22T06:15:48;5.47;;;3.58;;
65558;SDS011;52203;51.998;5.140;2024-03-22T06:18:15;4.40;;;3.22;;
65558;SDS011;52203;51.998;5.140;2024-03-22T06:20:41;5.07;;;3.78;;
65558;SDS011;52203;51.998;5.140;2024-03-22T06:23:07;5.95;;;3.75;;
65558;SDS011;52203;51.998;5.140;2024-03-22T06:25:35;5.80;;;3.95;;
65558;SDS011;52203;51.998;5.140;2024-03-22T06:28:01;5.95;;;3.53;;
65558;SDS011;52203;51.998;5.140;2024-03-22T06:30:27;5.45;;;3.60;;
65558;SDS011;52203;51.998;5.140;2024-03-22T06:32:53;6.50;;;3.45;;
65558;SDS011;52203;51.998;5.140;2024-03-22T06:35:20;6.88;;;3.47;;
65558;SDS011;52203;51.998;5.140;2024-03-22T06:37:45;5.47;;;3.40;;
65558;SDS011;52203;51.998;5.140;2024-03-22T06:40:11;4.88;;;3.38;;
65558;SDS011;52203;51.998;5.140;2024-03-22T06:42:37;6.00;;;3.58;;
65558;SDS011;52203;51.998;5.140;2024-03-22T06:45:02;6.05;;;3.75;;
65558;SDS011;52203;51.998;5.140;2024-03-22T06:47:28;5.45;;;3.85;;
65558;SDS011;52203;51.998;5.140;2024-03-22T06:49:54;6.32;;;4.20;;
65558;SDS011;52203;51.998;5.140;2024-03-22T06:52:19;5.60;;;3.53;;
65558;SDS011;52203;51.998;5.140;2024-03-22T06:54:45;6.03;;;3.13;;
65558;SDS011;52203;51.998;5.140;2024-03-22T06:57:11;4.07;;;3.10;;
65558;SDS011;52203;51.998;5.140;2024-03-22T06:59:36;6.25;;;3.40;;
65558;SDS011;52203;51.998;5.140;2024-03-22T07:02:04;5.30;;;3.55;;
65558;SDS011;52203;51.998;5.140;2024-03-22T07:04:30;6.38;;;4.38;;
65558;SDS011;52203;51.998;5.140;2024-03-22T07:06:55;7.80;;;4.78;;
65558;SDS011;52203;51.998;5.140;2024-03-22T07:09:21;7.35;;;4.93;;
65558;SDS011;52203;51.998;5.140;2024-03-22T07:11:46;7.18;;;4.32;;
65558;SDS011;52203;51.998;5.140;2024-03-22T07:14:12;7.40;;;4.22;;
65558;SDS011;52203;51.998;5.140;2024-03-22T07:16:37;7.72;;;4.47;;
65558;SDS011;52203;51.998;5.140;2024-03-22T07:19:03;6.78;;;3.95;;
65558;SDS011;52203;51.998;5.140;2024-03-22T07:21:29;6.10;;;4.00;;
65558;SDS011;52203;51.998;5.140;2024-03-22T07:23:57;7.88;;;4.38;;
65558;SDS011;52203;51.998;5.140;2024-03-22T07:26:22;5.90;;;3.92;;
65558;SDS011;52203;51.998;5.140;2024-03-22T07:28:48;6.90;;;4.18;;
65558;SDS011;52203;51.998;5.140;2024-03-22T07:31:13;7.75;;;4.32;;
65558;SDS011;52203;51.998;5.140;2024-03-22T07:33:39;6.97;;;4.22;;
65558;SDS011;52203;51.998;5.140;2024-03-22T07:36:05;6.25;;;4.40;;
65558;SDS011;52203;51.998;5.140;2024-03-22T07:38:31;8.25;;;4.57;;
65558;SDS011;52203;51.998;5.140;2024-03-22T07:40:57;7.22;;;4.20;;
65558;SDS011;52203;51.998;5.140;2024-03-22T07:43:22;6.18;;;4.13;;
65558;SDS011;52203;51.998;5.140;2024-03-22T07:45:48;7.25;;;4.80;;
65558;SDS011;52203;51.998;5.140;2024-03-22T07:48:16;7.68;;;4.25;;
65558;SDS011;52203;51.998;5.140;2024-03-22T07:50:41;6.47;;;4.53;;
65558;SDS011;52203;51.998;5.140;2024-03-22T07:53:07;7.25;;;4.28;;
65558;SDS011;52203;51.998;5.140;2024-03-22T07:55:33;7.18;;;4.32;;
65558;SDS011;52203;51.998;5.140;2024-03-22T07:57:58;6.88;;;4.47;;
65558;SDS011;52203;51.998;5.140;2024-03-22T08:00:24;6.35;;;3.88;;
65558;SDS011;52203;51.998;5.140;2024-03-22T08:02:52;6.97;;;3.67;;
65558;SDS011;52203;51.998;5.140;2024-03-22T08:05:18;6.05;;;3.80;;
65558;SDS011;52203;51.998;5.140;2024-03-22T08:07:44;8.20;;;4.55;;
65558;SDS011;52203;51.998;5.140;2024-03-22T08:10:10;8.90;;;4.93;;
65558;SDS011;52203;51.998;5.140;2024-03-22T08:12:35;9.15;;;5.22;;
65558;SDS011;52203;51.998;5.140;2024-03-22T08:15:01;7.78;;;4.35;;
65558;SDS011;52203;51.998;5.140;2024-03-22T08:17:28;9.10;;;4.60;;
65558;SDS011;52203;51.998;5.140;2024-03-22T08:19:53;7.35;;;4.28;;
65558;SDS011;52203;51.998;5.140;2024-03-22T08:22:19;7.88;;;4.72;;
65558;SDS011;52203;51.998;5.140;2024-03-22T08:24:44;7.60;;;4.30;;
65558;SDS011;52203;51.998;5.140;2024-03-22T08:27:13;7.30;;;4.00;;
65558;SDS011;52203;51.998;5.140;2024-03-22T08:29:44;8.45;;;4.50;;
65558;SDS011;52203;51.998;5.140;2024-03-22T08:32:09;7.85;;;4.45;;
65558;SDS011;52203;51.998;5.140;2024-03-22T08:34:35;7.15;;;4.40;;
65558;SDS011;52203;51.998;5.140;2024-03-22T08:37:00;7.03;;;4.40;;
65558;SDS011;52203;51.998;5.140;2024-03-22T08:39:34;6.85;;;4.22;;
65558;SDS011;52203;51.998;5.140;2024-03-22T08:41:59;6.85;;;4.05;;
65558;SDS011;52203;51.998;5.140;2024-03-22T08:44:25;6.60;;;4.28;;
65558;SDS011;52203;51.998;5.140;2024-03-22T08:46:50;5.50;;;4.10;;
65558;SDS011;52203;51.998;5.140;2024-03-22T08:49:16;7.57;;;4.57;;
65558;SDS011;52203;51.998;5.140;2024-03-22T08:51:44;7.32;;;4.47;;
65558;SDS011;52203;51.998;5.140;2024-03-22T08:54:11;8.30;;;4.20;;
65558;SDS011;52203;51.998;5.140;2024-03-22T08:56:38;7.47;;;3.95;;
65558;SDS011;52203;51.998;5.140;2024-03-22T08:59:04;9.02;;;4.55;;
65558;SDS011;52203;51.998;5.140;2024-03-22T09:01:30;8.13;;;4.47;;
65558;SDS011;52203;51.998;5.140;2024-03-22T09:03:56;9.13;;;4.25;;
65558;SDS011;52203;51.998;5.140;2024-03-22T09:06:21;7.65;;;4.35;;
65558;SDS011;52203;51.998;5.140;2024-03-22T09:08:47;8.35;;;4.30;;
65558;SDS011;52203;51.998;5.140;2024-03-22T09:11:12;7.20;;;4.80;;
65558;SDS011;52203;51.998;5.140;2024-03-22T09:13:38;8.05;;;4.53;;
65558;SDS011;52203;51.998;5.140;2024-03-22T09:16:03;7.60;;;4.20;;
65558;SDS011;52203;51.998;5.140;2024-03-22T09:18:29;9.75;;;4.78;;
65558;SDS011;52203;51.998;5.140;2024-03-22T09:20:59;6.80;;;3.70;;
65558;SDS011;52203;51.998;5.140;2024-03-22T09:23:24;7.60;;;4.43;;
65558;SDS011;52203;51.998;5.140;2024-03-22T09:25:50;7.00;;;3.70;;
65558;SDS011;52203;51.998;5.140;2024-03-22T09:28:15;5.35;;;3.83;;
65558;SDS011;52203;51.998;5.140;2024-03-22T09:30:41;7.55;;;3.70;;
65558;SDS011;52203;51.998;5.140;2024-03-22T09:33:08;6.50;;;3.75;;
65558;SDS011;52203;51.998;5.140;2024-03-22T09:35:34;4.80;;;3.78;;
65558;SDS011;52203;51.998;5.140;2024-03-22T09:38:00;5.93;;;3.88;;
65558;SDS011;52203;51.998;5.140;2024-03-22T09:40:25;6.60;;;3.75;;
65558;SDS011;52203;51.998;5.140;2024-03-22T09:42:51;7.35;;;4.28;;
65558;SDS011;52203;51.998;5.140;2024-03-22T09:45:18;8.10;;;4.15;;
65558;SDS011;52203;51.998;5.140;2024-03-22T09:47:48;6.25;;;3.72;;
65558;SDS011;52203;51.998;5.140;2024-03-22T09:50:15;5.57;;;3.60;;
65558;SDS011;52203;51.998;5.140;2024-03-22T09:52:41;5.88;;;3.70;;
65558;SDS011;52203;51.998;5.140;2024-03-22T09:55:08;7.07;;;3.97;;
65558;SDS011;52203;51.998;5.140;2024-03-22T09:57:36;7.32;;;3.72;;
65558;SDS011;52203;51.998;5.140;2024-03-22T10:00:05;7.97;;;3.60;;
65558;SDS011;52203;51.998;5.140;2024-03-22T10:02:32;7.45;;;3.80;;
65558;SDS011;52203;51.998;5.140;2024-03-22T10:04:58;5.75;;;3.53;;
65558;SDS011;52203;51.998;5.140;2024-03-22T10:07:25;7.50;;;3.88;;
65558;SDS011;52203;51.998;5.140;2024-03-22T10:09:57;7.60;;;3.60;;
65558;SDS011;52203;51.998;5.140;2024-03-22T10:12:23;6.87;;;4.23;;
65558;SDS011;52203;51.998;5.140;2024-03-22T10:14:52;7.07;;;3.75;;
65558;SDS011;52203;51.998;5.140;2024-03-22T10:17:18;7.13;;;3.80;;
65558;SDS011;52203;51.998;5.140;2024-03-22T10:19:43;6.25;;;3.63;;
65558;SDS011;52203;51.998;5.140;2024-03-22T10:22:09;6.32;;;3.55;;
65558;SDS011;52203;51.998;5.140;2024-03-22T10:24:34;6.38;;;3.83;;
65558;SDS011;52203;51.998;5.140;2024-03-22T10:27:00;7.90;;;3.78;;
65558;SDS011;52203;51.998;5.140;2024-03-22T10:29:25;7.53;;;3.60;;
65558;SDS011;52203;51.998;5.140;2024-03-22T10:31:51;7.93;;;3.40;;
65558;SDS011;52203;51.998;5.140;2024-03-22T10:34:18;6.45;;;3.10;;
65558;SDS011;52203;51.998;5.140;2024-03-22T10:36:46;6.70;;;3.20;;
65558;SDS011;52203;51.998;5.140;2024-03-22T10:39:12;7.57;;;3.20;;
65558;SDS011;52203;51.998;5.140;2024-03-22T10:41:42;7.60;;;3.20;;
65558;SDS011;52203;51.998;5.140;2024-03-22T10:44:07;5.93;;;3.00;;
65558;SDS011;52203;51.998;5.140;2024-03-22T10:46:33;5.45;;;3.05;;
65558;SDS011;52203;51.998;5.140;2024-03-22T10:49:00;6.13;;;3.30;;
65558;SDS011;52203;51.998;5.140;2024-03-22T10:51:29;7.47;;;3.40;;
65558;SDS011;52203;51.998;5.140;2024-03-22T10:53:56;5.57;;;3.53;;
65558;SDS011;52203;51.998;5.140;2024-03-22T10:56:26;7.45;;;3.55;;
65558;SDS011;52203;51.998;5.140;2024-03-22T10:58:52;5.20;;;3.22;;
65558;SDS011;52203;51.998;5.140;2024-03-22T11:01:24;5.88;;;3.08;;
65558;SDS011;52203;51.998;5.140;2024-03-22T11:03:51;6.30;;;3.33;;
65558;SDS011;52203;51.998;5.140;2024-03-22T11:06:28;6.75;;;3.00;;
65558;SDS011;52203;51.998;5.140;2024-03-22T11:08:55;5.07;;;3.13;;
65558;SDS011;52203;51.998;5.140;2024-03-22T11:11:25;5.93;;;3.30;;
65558;SDS011;52203;51.998;5.140;2024-03-22T11:13:54;5.72;;;3.30;;
65558;SDS011;52203;51.998;5.140;2024-03-22T11:16:21;6.18;;;3.08;;
65558;SDS011;52203;51.998;5.140;2024-03-22T11:18:46;5.47;;;2.88;;
65558;SDS011;52203;51.998;5.140;2024-03-22T11:21:13;5.97;;;3.17;;
65558;SDS011;52203;51.998;5.140;2024-03-22T11:23:41;7.20;;;3.30;;
65558;SDS011;52203;51.998;5.140;2024-03-22T11:26:10;4.57;;;3.25;;
65558;SDS011;52203;51.998;5.140;2024-03-22T11:28:36;5.22;;;2.95;;
65558;SDS011;52203;51.998;5.140;2024-03-22T11:31:01;5.78;;;3.20;;
65558;SDS011;52203;51.998;5.140;2024-03-22T11:33:27;6.82;;;2.83;;
65558;SDS011;52203;51.998;5.140;2024-03-22T11:35:53;5.32;;;3.40;;
65558;SDS011;52203;51.998;5.140;2024-03-22T11:38:19;5.90;;;3.10;;
65558;SDS011;52203;51.998;5.140;2024-03-22T11:40:44;5.22;;;3.08;;
65558;SDS011;52203;51.998;5.140;2024-03-22T11:43:11;4.75;;;3.10;;
65558;SDS011;52203;51.998;5.140;2024-03-22T11:45:40;4.47;;;2.83;;
65558;SDS011;52203;51.998;5.140;2024-03-22T11:48:06;4.95;;;3.00;;
65558;SDS011;52203;51.998;5.140;2024-03-22T11:50:32;5.95;;;3.10;;
65558;SDS011;52203;51.998;5.140;2024-03-22T11:52:57;5.70;;;3.20;;
65558;SDS011;52203;51.998;5.140;2024-03-22T11:55:26;5.30;;;3.00;;
65558;SDS011;52203;51.998;5.140;2024-03-22T11:57:53;4.18;;;2.80;;
65558;SDS011;52203;51.998;5.140;2024-03-22T12:00:18;4.40;;;2.75;;
65558;SDS011;52203;51.998;5.140;2024-03-22T12:02:44;5.00;;;2.58;;
65558;SDS011;52203;51.998;5.140;2024-03-22T12:05:10;4.72;;;2.80;;
65558;SDS011;52203;51.998;5.140;2024-03-22T12:07:36;7.15;;;3.67;;
65558;SDS011;52203;51.998;5.140;2024-03-22T12:10:02;5.70;;;3.15;;
65558;SDS011;52203;51.998;5.140;2024-03-22T12:12:28;5.90;;;3.00;;
65558;SDS011;52203;51.998;5.140;2024-03-22T12:14:55;5.65;;;2.80;;
65558;SDS011;52203;51.998;5.140;2024-03-22T12:17:20;7.65;;;3.03;;
65558;SDS011;52203;51.998;5.140;2024-03-22T12:19:45;5.68;;;3.00;;
65558;SDS011;52203;51.998;5.140;2024-03-22T12:22:12;5.68;;;2.70;;
65558;SDS011;52203;51.998;5.140;2024-03-22T12:24:38;5.57;;;2.97;;
65558;SDS011;52203;51.998;5.140;2024-03-22T12:27:03;5.65;;;2.60;;
65558;SDS011;52203;51.998;5.140;2024-03-22T12:29:31;3.90;;;2.65;;
65558;SDS011;52203;51.998;5.140;2024-03-22T12:31:58;5.70;;;2.70;;
65558;SDS011;52203;51.998;5.140;2024-03-22T12:34:26;6.07;;;2.60;;
65558;SDS011;52203;51.998;5.140;2024-03-22T12:36:52;4.65;;;2.90;;
65558;SDS011;52203;51.998;5.140;2024-03-22T12:39:18;4.80;;;3.10;;
65558;SDS011;52203;51.998;5.140;2024-03-22T12:41:43;4.03;;;2.70;;
65558;SDS011;52203;51.998;5.140;2024-03-22T12:44:09;4.03;;;2.55;;
65558;SDS011;52203;51.998;5.140;2024-03-22T12:46:34;5.85;;;2.60;;
65558;SDS011;52203;51.998;5.140;2024-03-22T12:49:00;4.53;;;2.60;;
65558;SDS011;52203;51.998;5.140;2024-03-22T12:51:25;5.53;;;2.95;;
65558;SDS011;52203;51.998;5.140;2024-03-22T12:53:50;5.93;;;2.63;;
65558;SDS011;52203;51.998;5.140;2024-03-22T12:56:16;4.97;;;2.30;;
65558;SDS011;52203;51.998;5.140;2024-03-22T12:58:41;5.65;;;2.60;;
65558;SDS011;52203;51.998;5.140;2024-03-22T13:01:09;5.43;;;2.88;;
65558;SDS011;52203;51.998;5.140;2024-03-22T13:03:37;5.25;;;2.38;;
65558;SDS011;52203;51.998;5.140;2024-03-22T13:06:03;5.93;;;2.55;;
65558;SDS011;52203;51.998;5.140;2024-03-22T13:08:30;7.43;;;2.78;;
65558;SDS011;52203;51.998;5.140;2024-03-22T13:10:56;6.13;;;3.22;;
65558;SDS011;52203;51.998;5.140;2024-03-22T13:13:22;4.25;;;2.45;;
65558;SDS011;52203;51.998;5.140;2024-03-22T13:15:47;4.53;;;2.15;;
65558;SDS011;52203;51.998;5.140;2024-03-22T13:18:13;3.75;;;2.67;;
65558;SDS011;52203;51.998;5.140;2024-03-22T13:20:40;7.88;;;2.83;;
65558;SDS011;52203;51.998;5.140;2024-03-22T13:23:06;5.93;;;2.70;;
65558;SDS011;52203;51.998;5.140;2024-03-22T13:25:34;5.45;;;2.58;;
65558;SDS011;52203;51.998;5.140;2024-03-22T13:28:01;3.75;;;2.10;;
65558;SDS011;52203;51.998;5.140;2024-03-22T13:30:28;4.55;;;2.45;;
65558;SDS011;52203;51.998;5.140;2024-03-22T13:32:54;4.78;;;2.60;;
65558;SDS011;52203;51.998;5.140;2024-03-22T13:35:21;3.58;;;2.25;;
65558;SDS011;52203;51.998;5.140;2024-03-22T13:37:47;3.67;;;2.65;;
65558;SDS011;52203;51.998;5.140;2024-03-22T13:40:12;4.15;;;2.13;;
65558;SDS011;52203;51.998;5.140;2024-03-22T13:42:38;5.47;;;2.20;;
65558;SDS011;52203;51.998;5.140;2024-03-22T13:45:03;5.38;;;2.38;;
65558;SDS011;52203;51.998;5.140;2024-03-22T13:47:29;5.63;;;2.58;;
65558;SDS011;52203;51.998;5.140;2024-03-22T13:49:55;4.18;;;2.22;;
65558;SDS011;52203;51.998;5.140;2024-03-22T13:52:20;6.00;;;2.60;;
65558;SDS011;52203;51.998;5.140;2024-03-22T13:54:46;4.78;;;2.22;;
65558;SDS011;52203;51.998;5.140;2024-03-22T13:57:12;5.30;;;2.50;;
65558;SDS011;52203;51.998;5.140;2024-03-22T13:59:38;5.00;;;2.47;;
65558;SDS011;52203;51.998;5.140;2024-03-22T14:02:05;4.13;;;2.30;;
65558;SDS011;52203;51.998;5.140;2024-03-22T14:04:31;6.10;;;2.40;;
65558;SDS011;52203;51.998;5.140;2024-03-22T14:06:57;3.03;;;2.00;;
65558;SDS011;52203;51.998;5.140;2024-03-22T14:09:22;4.28;;;2.10;;
65558;SDS011;52203;51.998;5.140;2024-03-22T14:11:48;4.32;;;2.35;;
65558;SDS011;52203;51.998;5.140;2024-03-22T14:14:14;4.90;;;2.63;;
65558;SDS011;52203;51.998;5.140;2024-03-22T14:16:40;4.28;;;2.65;;
65558;SDS011;52203;51.998;5.140;2024-03-22T14:19:09;3.97;;;2.28;;
65558;SDS011;52203;51.998;5.140;2024-03-22T14:21:35;3.20;;;2.00;;
65558;SDS011;52203;51.998;5.140;2024-03-22T14:24:00;3.50;;;1.83;;
65558;SDS011;52203;51.998;5.140;2024-03-22T14:26:28;6.10;;;2.42;;
65558;SDS011;52203;51.998;5.140;2024-03-22T14:28:53;4.88;;;2.40;;
65558;SDS011;52203;51.998;5.140;2024-03-22T14:31:19;5.88;;;2.50;;
65558;SDS011;52203;51.998;5.140;2024-03-22T14:33:44;3.92;;;1.70;;
65558;SDS011;52203;51.998;5.140;2024-03-22T14:36:10;3.47;;;2.08;;
65558;SDS011;52203;51.998;5.140;2024-03-22T14:38:38;3.30;;;2.20;;
65558;SDS011;52203;51.998;5.140;2024-03-22T14:41:04;4.65;;;2.28;;
65558;SDS011;52203;51.998;5.140;2024-03-22T14:43:30;4.28;;;2.40;;